This is the latest recevied weather packets stored in our database for station/object HA8LNU. If no packets are shown the sender has not sent any weather packets the latest 10 day(s).
| Time | Temp. | Humidity | Pressure | Rain* | Wind** | Luminosity | Snow |
|---|---|---|---|---|---|---|---|
| 1778038247 | 8.33° C | 77% | 1014.1 hPa | 0 mm | - | - | - |
| 1778037645 | 8.33° C | 76% | 1013.9 hPa | 0 mm | - | - | - |
| 1778029817 | 8.89° C | 73% | 1013.4 hPa | 0 mm | - | - | - |
| 1778022050 | 13.89° C | 52% | 1013.3 hPa | 0 mm | - | - | - |
| 1778020846 | 13.89° C | 53% | 1013.3 hPa | 0 mm | - | - | - |
| 1778019642 | 11.67° C | 64% | 1012.9 hPa | 0 mm | - | - | - |
| 1778018437 | 11.11° C | 65% | 1012.8 hPa | 0 mm | - | - | - |
| 1778014223 | 12.22° C | 63% | 1012.5 hPa | 0 mm | - | - | - |
| 1778008864 | 14.44° C | 54% | 1012.1 hPa | 0 mm | - | - | - |
| 1778007660 | 15° C | 51% | 1012.1 hPa | 0 mm | - | - | - |
| 1777996240 | 26.67° C | 22% | 1012.3 hPa | 0 mm | - | - | - |
| 1777995617 | 26.67° C | 21% | 1012.4 hPa | 0 mm | - | - | - |
| 1777994474 | 27.22° C | 20% | 1012.4 hPa | 0 mm | - | - | - |
| 1777992065 | 29.44° C | 14% | 1012.6 hPa | 0 mm | - | - | - |
| 1777990861 | 30° C | 14% | 1012.9 hPa | 0 mm | - | - | - |
| 1777984238 | 30° C | 14% | 1014 hPa | 0 mm | - | - | - |
| 1777980625 | 29.44° C | 13% | 1014.8 hPa | 0 mm | - | - | - |
| 1777975888 | 28.89° C | 18% | 1015.7 hPa | 0 mm | - | - | - |
| 1777972898 | 27.78° C | 20% | 1016.1 hPa | 0 mm | - | - | - |
| 1777965030 | 22.78° C | 33% | 1017 hPa | 0 mm | - | - | - |
| 1777956059 | 8.89° C | 74% | 1016.9 hPa | 0 mm | - | - | - |
| 1777954854 | 7.22° C | 83% | 1016.9 hPa | 0 mm | - | - | - |
| 1777954273 | 6.11° C | 83% | 1016.8 hPa | 0 mm | - | - | - |
| 1777947629 | 6.67° C | 79% | 1017 hPa | 0 mm | - | - | - |
| 1777942872 | 6.67° C | 84% | 1016.6 hPa | 0 mm | - | - | - |
* Rain latest hour (hover to see other rain measurements)
** Current wind speed in m/s (hover to see current wind gust speed)